Time;durP1;ratioP1;P1;durP2;ratioP2;P2;SDS_P1;SDS_P2;PMS_P1;PMS_P2;Temp;Humidity;BMP_temperature;BMP_pressure;BME280_temperature;BME280_humidity;BME280_pressure;Samples;Min_cycle;Max_cycle;Signal;HPM_P1;HPM_P2
2021/09/10 00:00:00;;;;;;;4.67;2.40;;;;;;;20.63;73.93;99999.00;5003692;28;20563;-77
2021/09/10 00:02:28;;;;;;;2.90;2.57;;;;;;;20.58;73.85;100009.91;5003451;28;20233;-76
2021/09/10 00:04:54;;;;;;;2.23;2.03;;;;;;;20.62;73.77;100008.75;5002852;28;20206;-77
2021/09/10 00:07:20;;;;;;;4.43;2.57;;;;;;;20.65;73.38;100031.56;5003357;28;20269;-76
2021/09/10 00:09:47;;;;;;;2.67;2.47;;;;;;;20.56;73.71;100014.44;5003608;28;20210;-76
2021/09/10 00:12:13;;;;;;;2.47;2.33;;;;;;;20.61;74.04;100006.22;5003490;28;20283;-75
2021/09/10 00:14:39;;;;;;;2.50;2.30;;;;;;;20.62;74.41;99997.31;5003319;28;20211;-78
2021/09/10 00:17:06;;;;;;;3.00;2.70;;;;;;;20.59;74.49;99985.13;5003138;28;20767;-77
2021/09/10 00:19:33;;;;;;;2.53;2.37;;;;;;;20.57;74.68;99983.47;5003394;28;20207;-75
2021/09/10 00:22:00;;;;;;;3.50;3.20;;;;;;;20.56;74.60;99993.25;5002971;28;20229;-75
2021/09/10 00:24:26;;;;;;;3.03;2.83;;;;;;;20.58;74.51;99993.13;5002595;28;20206;-78
2021/09/10 00:26:53;;;;;;;3.03;2.80;;;;;;;20.60;74.51;99988.63;5003300;28;20248;-76
2021/09/10 00:29:19;;;;;;;3.33;3.13;;;;;;;20.63;74.54;99997.22;5002766;28;20219;-75
2021/09/10 00:31:47;;;;;;;3.00;2.80;;;;;;;20.60;75.01;99989.47;5003230;28;20654;-77
2021/09/10 00:34:13;;;;;;;3.33;3.13;;;;;;;20.58;75.05;99988.69;5002613;28;20306;-75
2021/09/10 00:36:44;;;;;;;3.47;3.20;;;;;;;20.57;75.56;99975.53;5002914;28;20262;-75
2021/09/10 00:39:11;;;;;;;3.87;3.57;;;;;;;20.58;75.87;99972.78;5002402;28;20289;-75
2021/09/10 00:41:37;;;;;;;3.67;3.27;;;;;;;20.53;76.00;99966.91;5002724;28;20234;-76
2021/09/10 00:44:04;;;;;;;3.20;3.00;;;;;;;20.35;75.75;99984.06;5003193;28;20225;-76
2021/09/10 00:46:30;;;;;;;3.83;3.53;;;;;;;19.88;78.12;99919.19;5002881;28;20241;-75
2021/09/10 00:48:57;;;;;;;4.43;4.03;;;;;;;19.72;79.01;99871.69;5002419;28;20770;-75
2021/09/10 00:51:23;;;;;;;4.00;3.57;;;;;;;19.85;78.93;99885.81;5002943;28;20226;-75
2021/09/10 00:53:51;;;;;;;3.83;3.53;;;;;;;19.96;78.61;99895.69;5002467;28;20206;-77
2021/09/10 00:56:18;;;;;;;3.37;3.13;;;;;;;19.98;78.68;99901.72;5002883;28;20287;-76
2021/09/10 00:58:45;;;;;;;4.57;3.87;;;;;;;20.02;78.60;99906.75;5002918;28;20273;-77
2021/09/10 01:01:11;;;;;;;3.70;3.40;;;;;;;20.04;78.13;99909.28;5002197;28;20411;-76
2021/09/10 01:03:38;;;;;;;3.97;3.70;;;;;;;20.01;78.34;99909.47;5001751;28;20203;-75
2021/09/10 01:06:05;;;;;;;4.03;3.73;;;;;;;20.00;78.72;99898.03;5002650;28;20214;-76
2021/09/10 01:08:32;;;;;;;4.93;3.70;;;;;;;20.03;78.49;99910.22;5002806;28;20218;-76
2021/09/10 01:11:01;;;;;;;5.50;3.73;;;;;;;19.96;78.95;99904.50;5002599;28;20234;-77
2021/09/10 01:13:27;;;;;;;4.33;4.03;;;;;;;19.96;79.02;99911.56;5002320;28;21031;-75
2021/09/10 01:15:54;;;;;;;4.37;4.07;;;;;;;20.02;79.11;99903.25;5002351;28;20210;-76
2021/09/10 01:18:21;;;;;;;4.23;3.80;;;;;;;20.01;79.00;99910.31;5002337;28;20673;-78
2021/09/10 01:20:48;;;;;;;3.30;3.00;;;;;;;20.00;79.19;99905.16;5002135;28;20653;-76
2021/09/10 01:23:14;;;;;;;5.43;4.27;;;;;;;19.98;79.48;99902.59;5001853;28;20214;-76
2021/09/10 01:25:42;;;;;;;3.63;3.33;;;;;;;19.93;79.81;99903.84;5002578;28;20218;-76
2021/09/10 01:28:09;;;;;;;4.70;3.23;;;;;;;19.88;79.86;99885.63;5002585;28;20270;-77
2021/09/10 01:30:37;;;;;;;5.07;4.27;;;;;;;19.87;80.49;99880.41;5004798;28;20206;-74
2021/09/10 01:33:05;;;;;;;4.93;3.80;;;;;;;19.84;80.20;99879.66;5006323;28;20265;-76
2021/09/10 01:35:32;;;;;;;4.10;3.70;;;;;;;19.83;80.21;99891.19;5005999;28;20249;-76
2021/09/10 01:37:59;;;;;;;6.83;4.77;;;;;;;19.86;80.55;99881.34;5006555;28;20600;-77
2021/09/10 01:40:26;;;;;;;3.33;3.03;;;;;;;19.88;80.20;99892.69;5006317;28;20654;-76
2021/09/10 01:42:54;;;;;;;6.43;3.60;;;;;;;19.87;80.16;99893.66;5005596;28;20667;-75
2021/09/10 01:45:21;;;;;;;3.80;3.50;;;;;;;19.87;80.20;99901.59;5006124;28;20206;-77
2021/09/10 01:47:48;;;;;;;5.77;3.47;;;;;;;19.82;80.48;99891.31;5005901;28;20211;-76
2021/09/10 01:50:17;;;;;;;5.10;4.10;;;;;;;19.80;81.06;99887.91;5006198;28;20263;-75
2021/09/10 01:52:44;;;;;;;4.70;3.60;;;;;;;19.79;80.92;99881.75;5005776;28;20226;-75
2021/09/10 01:55:12;;;;;;;4.63;3.70;;;;;;;19.76;81.02;99882.00;5006057;28;20753;-77
2021/09/10 01:57:39;;;;;;;4.90;4.50;;;;;;;19.68;82.87;99847.16;5005865;28;20668;-77
2021/09/10 02:00:08;;;;;;;4.83;4.20;;;;;;;19.72;82.03;99847.84;5006033;28;20209;-77
2021/09/10 02:02:34;;;;;;;4.43;3.80;;;;;;;19.73;82.26;99853.03;5006032;28;20288;-76
2021/09/10 02:05:01;;;;;;;6.57;4.03;;;;;;;19.74;82.25;99862.69;5005480;28;20273;-75
2021/09/10 02:07:27;;;;;;;4.73;4.37;;;;;;;19.73;82.22;99863.63;5006185;28;20210;-77
2021/09/10 02:09:53;;;;;;;4.67;4.37;;;;;;;19.72;83.33;99839.91;5005267;28;20673;-77
2021/09/10 02:12:20;;;;;;;4.70;4.40;;;;;;;19.70;83.43;99824.09;5005072;28;20230;-76
2021/09/10 02:14:46;;;;;;;4.27;4.00;;;;;;;19.72;83.47;99830.19;5005458;28;20266;-77
2021/09/10 02:17:14;;;;;;;4.77;4.40;;;;;;;19.74;83.28;99840.66;5004995;28;20651;-75
2021/09/10 02:19:40;;;;;;;5.70;4.23;;;;;;;19.74;83.68;99832.69;5005922;28;20750;-76
2021/09/10 02:22:06;;;;;;;5.87;4.53;;;;;;;19.74;84.09;99819.47;5004512;28;20648;-77
2021/09/10 02:24:33;;;;;;;4.50;4.10;;;;;;;19.71;84.61;99806.41;5004865;28;20210;-75
2021/09/10 02:26:59;;;;;;;4.47;4.17;;;;;;;19.73;84.70;99800.09;5004833;28;20211;-74
2021/09/10 02:29:26;;;;;;;5.63;4.40;;;;;;;19.73;85.36;99786.00;5004923;28;20621;-77
2021/09/10 02:31:52;;;;;;;6.23;4.67;;;;;;;19.69;85.83;99780.03;5004325;28;20502;-76
2021/09/10 02:34:20;;;;;;;4.33;4.03;;;;;;;19.68;86.05;99774.81;5004881;28;20257;-75
2021/09/10 02:36:46;;;;;;;6.17;4.73;;;;;;;19.64;86.44;99777.69;5004579;28;20766;-76
2021/09/10 02:39:12;;;;;;;4.97;4.50;;;;;;;19.65;86.10;99773.25;5004693;28;20631;-76
2021/09/10 02:41:40;;;;;;;6.97;5.33;;;;;;;19.64;86.63;99777.69;5004596;28;20296;-75
2021/09/10 02:44:08;;;;;;;5.37;4.90;;;;;;;19.65;86.63;99765.28;5004129;28;20276;-77
2021/09/10 02:46:34;;;;;;;5.20;4.37;;;;;;;19.68;86.82;99780.97;5005093;28;20214;-76
2021/09/10 02:49:01;;;;;;;5.93;4.63;;;;;;;19.70;87.00;99781.72;5004353;28;20629;-75
2021/09/10 02:51:30;;;;;;;5.37;4.93;;;;;;;19.73;87.13;99788.66;5004087;28;20258;-74
2021/09/10 02:53:56;;;;;;;5.10;4.70;;;;;;;19.73;87.05;99794.78;5004303;28;20728;-75
2021/09/10 02:56:23;;;;;;;6.07;4.83;;;;;;;19.76;87.36;99793.72;5005103;28;20210;-76
2021/09/10 02:58:49;;;;;;;6.37;5.00;;;;;;;19.79;86.99;99798.81;5003627;28;20277;-74
2021/09/10 03:01:16;;;;;;;5.20;4.70;;;;;;;19.78;87.63;99797.13;5004336;28;20222;-75
2021/09/10 03:03:42;;;;;;;5.63;5.17;;;;;;;19.76;87.79;99799.00;5003758;28;20211;-76
2021/09/10 03:06:09;;;;;;;5.60;5.13;;;;;;;19.80;87.94;99796.06;5004236;28;20269;-74
2021/09/10 03:08:36;;;;;;;5.47;5.00;;;;;;;19.81;87.98;99800.41;5004227;28;20210;-76
2021/09/10 03:11:03;;;;;;;5.40;4.97;;;;;;;19.77;88.37;99792.78;5003814;28;20664;-76
2021/09/10 03:13:29;;;;;;;5.40;4.90;;;;;;;19.79;88.54;99788.22;5004139;28;20260;-77
2021/09/10 03:15:56;;;;;;;5.40;5.00;;;;;;;19.80;88.87;99782.84;5003739;28;20755;-74
2021/09/10 03:18:22;;;;;;;5.87;5.27;;;;;;;19.79;88.71;99790.88;5003954;28;20284;-76
2021/09/10 03:20:49;;;;;;;5.27;4.77;;;;;;;19.79;88.95;99796.19;5004147;28;20304;-76
2021/09/10 03:23:15;;;;;;;10.27;5.33;;;;;;;19.80;88.77;99796.06;5003603;28;20624;-74
2021/09/10 03:25:43;;;;;;;5.70;5.30;;;;;;;19.84;88.80;99804.63;5004148;28;21014;-76
2021/09/10 03:28:09;;;;;;;9.43;5.40;;;;;;;19.84;88.65;99815.22;5004085;28;20208;-76
2021/09/10 03:30:35;;;;;;;5.27;4.77;;;;;;;19.84;88.84;99817.88;5003786;28;20219;-75
2021/09/10 03:33:02;;;;;;;6.17;5.67;;;;;;;19.86;89.12;99816.00;5004196;28;20267;-75
2021/09/10 03:35:28;;;;;;;6.33;5.73;;;;;;;19.84;89.46;99808.16;5003702;28;20226;-76
2021/09/10 03:37:55;;;;;;;5.57;5.07;;;;;;;19.85;89.45;99814.28;5003805;28;20724;-75
2021/09/10 03:40:21;;;;;;;5.53;5.03;;;;;;;19.84;89.74;99809.94;5004434;28;20230;-76
2021/09/10 03:42:49;;;;;;;8.80;6.07;;;;;;;19.79;90.22;99798.81;5003788;28;20313;-77
2021/09/10 03:45:15;;;;;;;6.53;5.63;;;;;;;19.79;90.12;99799.66;5003786;28;20265;-75
2021/09/10 03:47:42;;;;;;;8.43;5.30;;;;;;;19.81;90.39;99799.56;5003996;28;20266;-76
2021/09/10 03:50:09;;;;;;;6.00;5.53;;;;;;;19.79;90.48;99799.66;5003985;28;20624;-75
2021/09/10 03:52:35;;;;;;;6.50;5.90;;;;;;;19.84;90.54;99802.00;5003039;28;20241;-76
2021/09/10 03:55:02;;;;;;;8.87;5.97;;;;;;;19.81;90.61;99803.06;5003930;28;20203;-77
2021/09/10 03:57:28;;;;;;;6.27;5.77;;;;;;;19.81;90.48;99811.00;5004407;28;20233;-76
2021/09/10 03:59:56;;;;;;;6.37;5.77;;;;;;;19.80;90.79;99817.25;5003249;28;20693;-77
2021/09/10 04:02:22;;;;;;;6.10;5.50;;;;;;;19.78;90.68;99811.22;5003341;28;20665;-74
2021/09/10 04:04:48;;;;;;;6.30;5.50;;;;;;;19.80;90.47;99822.56;5003111;28;20750;-77
2021/09/10 04:07:15;;;;;;;6.17;5.67;;;;;;;19.77;90.49;99822.75;5003497;28;20198;-76
2021/09/10 04:09:41;;;;;;;6.10;5.60;;;;;;;19.74;90.74;99825.63;5003737;28;20214;-74
2021/09/10 04:12:07;;;;;;;6.47;5.97;;;;;;;19.76;90.45;99828.16;5003714;28;20982;-77
2021/09/10 04:14:34;;;;;;;6.20;5.80;;;;;;;19.77;90.52;99849.25;5003225;28;20217;-76
2021/09/10 04:17:01;;;;;;;5.47;5.07;;;;;;;19.77;90.28;99853.69;5002883;28;20207;-76
2021/09/10 04:19:28;;;;;;;5.87;5.40;;;;;;;19.76;90.39;99859.94;5003585;28;20214;-77
2021/09/10 04:21:54;;;;;;;6.00;5.50;;;;;;;19.73;90.46;99866.28;5002800;28;20731;-75
2021/09/10 04:24:21;;;;;;;6.20;5.80;;;;;;;19.75;90.22;99880.28;5003063;28;20217;-76
2021/09/10 04:26:47;;;;;;;5.60;5.20;;;;;;;19.77;90.00;99881.03;5003639;28;20226;-77
2021/09/10 04:29:13;;;;;;;5.80;5.30;;;;;;;19.75;90.12;99887.38;5003073;28;20265;-77
2021/09/10 04:31:40;;;;;;;6.77;6.00;;;;;;;19.73;90.46;99884.81;5002991;28;20731;-74
2021/09/10 04:34:07;;;;;;;6.23;5.73;;;;;;;19.70;90.63;99882.38;5002765;28;20204;-75
2021/09/10 04:36:34;;;;;;;7.00;6.20;;;;;;;19.69;90.73;99891.25;5003090;28;20214;-75
2021/09/10 04:39:00;;;;;;;8.23;6.17;;;;;;;19.69;90.70;99885.09;5002657;28;20235;-76
2021/09/10 04:41:27;;;;;;;6.57;6.07;;;;;;;19.70;91.00;99890.31;5003121;28;20286;-76
2021/09/10 04:43:53;;;;;;;7.40;5.87;;;;;;;19.72;90.76;99895.50;5002530;28;20949;-77
2021/09/10 04:46:19;;;;;;;6.77;6.03;;;;;;;19.73;90.32;99900.72;5002889;28;20560;-75
2021/09/10 04:48:46;;;;;;;7.80;6.13;;;;;;;19.74;90.96;99904.19;5002965;28;20210;-75
2021/09/10 04:51:13;;;;;;;6.47;5.87;;;;;;;19.74;90.91;99901.56;5002661;28;20277;-75
2021/09/10 04:53:40;;;;;;;5.73;5.33;;;;;;;19.70;91.30;99897.38;5002037;28;20695;-75
2021/09/10 04:56:07;;;;;;;6.90;6.40;;;;;;;19.68;91.52;99896.63;5003242;28;20291;-77
2021/09/10 04:58:33;;;;;;;6.50;6.10;;;;;;;19.70;91.39;99902.66;5003117;28;20233;-76
2021/09/10 05:01:00;;;;;;;6.73;6.23;;;;;;;19.68;91.25;99910.72;5002301;28;20234;-75
2021/09/10 05:03:26;;;;;;;7.13;5.90;;;;;;;19.67;91.26;99914.31;5002570;28;20213;-76
2021/09/10 05:05:52;;;;;;;6.40;5.90;;;;;;;19.70;90.90;99921.22;5001648;28;20280;-76
2021/09/10 05:08:20;;;;;;;6.13;5.60;;;;;;;19.70;91.09;99927.38;5002719;28;20620;-74
2021/09/10 05:10:46;;;;;;;6.10;5.60;;;;;;;19.68;91.27;99934.53;5002303;28;20272;-76
2021/09/10 05:13:13;;;;;;;6.67;6.07;;;;;;;19.70;91.14;99935.31;5002686;28;20214;-76
2021/09/10 05:15:39;;;;;;;7.13;6.73;;;;;;;19.73;91.07;99942.25;5001207;28;20218;-75
2021/09/10 05:18:06;;;;;;;6.47;5.90;;;;;;;19.73;91.20;99950.19;5002738;28;20307;-76
2021/09/10 05:20:32;;;;;;;6.47;5.87;;;;;;;19.71;91.43;99941.47;5002538;28;20214;-75
2021/09/10 05:22:58;;;;;;;6.80;6.13;;;;;;;19.70;91.51;99945.03;5002199;28;20636;-74
2021/09/10 05:25:26;;;;;;;7.93;5.77;;;;;;;19.70;91.72;99940.63;5002705;28;20774;-76
2021/09/10 05:27:53;;;;;;;6.93;6.33;;;;;;;19.72;91.33;99949.34;5002763;28;20252;-77
2021/09/10 05:30:19;;;;;;;6.60;6.10;;;;;;;19.72;91.67;99952.00;5002073;28;20202;-76
2021/09/10 05:32:45;;;;;;;6.23;5.67;;;;;;;19.75;91.39;99958.88;5002145;28;20237;-74
2021/09/10 05:35:14;;;;;;;6.97;6.37;;;;;;;19.73;91.73;99955.50;5002875;28;20206;-76
2021/09/10 05:37:40;;;;;;;6.43;5.93;;;;;;;19.73;91.53;99966.91;5002303;28;20235;-76
2021/09/10 05:40:08;;;;;;;6.60;6.00;;;;;;;19.73;91.61;99966.06;5002150;28;20202;-75
2021/09/10 05:42:35;;;;;;;6.23;5.83;;;;;;;19.76;91.60;99966.72;5002017;28;20788;-76
2021/09/10 05:45:02;;;;;;;7.80;7.20;;;;;;;19.76;91.80;99977.31;5001987;28;20226;-77
2021/09/10 05:47:28;;;;;;;6.13;5.73;;;;;;;19.76;92.16;99966.72;5002413;28;20248;-76
2021/09/10 05:49:55;;;;;;;6.73;6.23;;;;;;;19.78;91.85;99972.78;5001924;28;20621;-75
2021/09/10 05:52:21;;;;;;;6.93;6.43;;;;;;;19.83;92.10;99977.78;5001704;28;20720;-75
2021/09/10 05:54:47;;;;;;;6.90;6.30;;;;;;;19.84;91.76;99982.09;5001693;28;20754;-76
2021/09/10 05:57:14;;;;;;;6.10;5.70;;;;;;;19.88;91.74;99988.06;5001931;28;20218;-74
2021/09/10 05:59:41;;;;;;;6.87;6.40;;;;;;;19.85;91.97;99994.41;5002065;28;20581;-77
2021/09/10 06:02:08;;;;;;;7.43;6.90;;;;;;;19.79;92.75;99977.13;5002025;28;20276;-76
2021/09/10 06:04:34;;;;;;;8.33;7.07;;;;;;;19.79;93.12;99965.69;5001506;28;20214;-75
2021/09/10 06:07:01;;;;;;;7.10;6.50;;;;;;;19.80;93.13;99972.66;5001573;28;20207;-75
2021/09/10 06:09:27;;;;;;;8.90;6.80;;;;;;;19.84;92.96;99979.44;5002913;28;20261;-74
2021/09/10 06:11:53;;;;;;;7.53;6.93;;;;;;;19.84;93.60;99960.91;5001933;28;20300;-75
2021/09/10 06:14:20;;;;;;;7.83;7.23;;;;;;;19.88;93.31;99967.75;5002373;28;20210;-76
2021/09/10 06:16:47;;;;;;;7.90;7.10;;;;;;;19.92;92.84;100002.81;5004662;28;20515;-76
2021/09/10 06:19:14;;;;;;;6.53;6.13;;;;;;;19.96;92.58;100005.16;5005855;28;20474;-74
2021/09/10 06:21:40;;;;;;;7.37;6.73;;;;;;;19.99;92.77;100002.31;5005170;28;20659;-77
2021/09/10 06:24:06;;;;;;;8.10;7.50;;;;;;;20.01;92.41;100018.94;5005566;28;20298;-77
2021/09/10 06:26:34;;;;;;;7.10;6.53;;;;;;;20.06;92.60;100017.78;5006105;28;20264;-74
2021/09/10 06:29:00;;;;;;;7.77;7.23;;;;;;;20.05;92.82;100014.31;5005943;28;20245;-76
2021/09/10 06:31:27;;;;;;;7.57;7.07;;;;;;;20.08;92.78;100018.53;5006090;28;20237;-75
2021/09/10 06:33:54;;;;;;;8.10;7.50;;;;;;;20.08;92.82;100018.53;5005949;28;20276;-74
2021/09/10 06:36:21;;;;;;;8.10;7.33;;;;;;;20.14;92.02;100042.03;5005437;28;20219;-74
2021/09/10 06:38:47;;;;;;;8.20;7.40;;;;;;;20.20;91.98;100054.88;5005350;28;20284;-77
2021/09/10 06:41:13;;;;;;;8.03;7.43;;;;;;;20.26;91.75;100065.06;5004740;28;20222;-75
2021/09/10 06:43:40;;;;;;;7.30;6.80;;;;;;;20.31;91.74;100060.31;5004686;28;20284;-75
2021/09/10 06:46:07;;;;;;;7.47;7.00;;;;;;;20.28;90.96;100087.03;5005461;28;20638;-77
2021/09/10 06:48:34;;;;;;;8.17;7.50;;;;;;;20.30;90.37;100101.03;5004946;28;20209;-76
2021/09/10 06:51:01;;;;;;;7.53;7.03;;;;;;;20.33;90.81;100097.31;5005082;28;20226;-75
2021/09/10 06:53:28;;;;;;;8.03;7.43;;;;;;;20.35;91.15;100084.81;5004332;28;20218;-76
2021/09/10 06:55:54;;;;;;;7.93;7.33;;;;;;;20.33;91.73;100071.66;5005142;28;20635;-76
2021/09/10 06:58:20;;;;;;;8.53;7.70;;;;;;;20.35;91.96;100064.44;5004507;28;20582;-75
2021/09/10 07:00:47;;;;;;;9.13;8.53;;;;;;;20.38;91.67;100079.31;5005067;28;20619;-77
2021/09/10 07:03:13;;;;;;;8.73;7.97;;;;;;;20.40;91.29;100083.56;5004608;28;20734;-77
2021/09/10 07:05:39;;;;;;;8.63;7.87;;;;;;;20.38;92.47;100071.38;5004064;28;20745;-77
2021/09/10 07:08:07;;;;;;;9.30;8.40;;;;;;;20.41;91.78;100066.69;5004868;28;20214;-76
2021/09/10 07:10:33;;;;;;;9.07;8.37;;;;;;;20.48;91.86;100083.06;5004681;28;20852;-77
2021/09/10 07:13:00;;;;;;;8.43;7.80;;;;;;;20.43;91.66;100090.47;5004738;28;20210;-75
2021/09/10 07:15:26;;;;;;;8.17;7.63;;;;;;;20.47;91.87;100081.34;5004542;28;20206;-78
2021/09/10 07:17:52;;;;;;;8.80;8.10;;;;;;;20.53;91.46;100091.53;5004312;28;20214;-77
2021/09/10 07:20:19;;;;;;;8.57;7.87;;;;;;;20.57;91.74;100097.50;5004322;28;20217;-75
2021/09/10 07:22:45;;;;;;;8.43;7.73;;;;;;;20.65;91.75;100087.25;5004381;28;20280;-77
2021/09/10 07:25:13;;;;;;;8.10;7.50;;;;;;;20.68;92.24;100071.16;5003732;28;20550;-77
2021/09/10 07:27:39;;;;;;;8.30;7.60;;;;;;;20.72;92.10;100074.47;5003462;28;20268;-77
2021/09/10 07:30:07;;;;;;;9.43;8.73;;;;;;;20.75;91.63;100098.97;5004098;28;20251;-77
2021/09/10 07:32:33;;;;;;;8.03;7.53;;;;;;;20.72;90.45;100107.13;5004053;28;20280;-78
2021/09/10 07:35:00;;;;;;;8.40;7.77;;;;;;;20.75;91.42;100104.28;5003556;28;20206;-75
2021/09/10 07:37:29;;;;;;;8.30;7.70;;;;;;;20.84;90.87;100108.13;5004224;28;20274;-75
2021/09/10 07:39:56;;;;;;;7.83;7.17;;;;;;;20.90;91.32;100107.69;5003684;28;20641;-75
2021/09/10 07:42:24;;;;;;;7.50;7.00;;;;;;;20.96;90.98;100117.06;5004809;28;20226;-77
2021/09/10 07:44:50;;;;;;;8.30;7.80;;;;;;;21.05;90.56;100128.84;5003471;28;20241;-77
2021/09/10 07:47:18;;;;;;;7.37;6.77;;;;;;;21.07;90.59;100135.78;5003418;28;20257;-75
2021/09/10 07:49:45;;;;;;;8.30;7.53;;;;;;;21.10;90.41;100154.13;5004238;28;20224;-76
2021/09/10 07:52:11;;;;;;;8.67;7.97;;;;;;;21.13;89.45;100169.84;5003931;28;20230;-75
2021/09/10 07:54:37;;;;;;;8.50;7.90;;;;;;;21.18;88.46;100210.19;5003266;28;20215;-75
2021/09/10 07:57:04;;;;;;;8.13;7.47;;;;;;;21.14;87.36;100248.50;5003253;28;20210;-75
2021/09/10 07:59:32;;;;;;;9.73;8.67;;;;;;;21.18;86.70;100257.97;5004423;28;20288;-78
2021/09/10 08:01:58;;;;;;;8.27;7.53;;;;;;;21.25;86.74;100263.75;5003198;28;20226;-78
2021/09/10 08:04:25;;;;;;;8.40;7.80;;;;;;;21.37;86.14;100283.31;5003333;28;20203;-77
2021/09/10 08:06:52;;;;;;;8.10;7.50;;;;;;;21.46;85.21;100319.06;5003669;28;20549;-78
2021/09/10 08:09:18;;;;;;;7.13;6.63;;;;;;;21.57;84.67;100332.50;5003625;28;20210;-77
2021/09/10 08:11:45;;;;;;;9.13;8.50;;;;;;;21.63;84.74;100321.44;5003153;28;20442;-76
2021/09/10 08:14:11;;;;;;;8.90;8.27;;;;;;;21.78;84.47;100330.19;5003851;28;20700;-79
2021/09/10 08:16:39;;;;;;;8.53;7.83;;;;;;;21.88;84.29;100327.75;5003966;28;20455;-79
2021/09/10 08:19:06;;;;;;;8.13;7.53;;;;;;;21.88;82.99;100372.94;5003025;28;20226;-78
2021/09/10 08:21:32;;;;;;;7.97;7.27;;;;;;;21.86;82.42;100386.31;5004916;28;20723;-78
2021/09/10 08:23:58;;;;;;;8.70;8.00;;;;;;;21.86;82.92;100377.50;5003847;28;20210;-79
2021/09/10 08:26:25;;;;;;;8.60;7.90;;;;;;;21.93;83.88;100344.25;5004568;28;20268;-77
2021/09/10 08:28:51;;;;;;;8.03;7.33;;;;;;;22.03;82.21;100401.13;5003300;28;20265;-77
2021/09/10 08:31:17;;;;;;;8.37;7.77;;;;;;;22.05;81.46;100436.44;5003278;28;20264;-79
2021/09/10 08:33:45;;;;;;;7.77;7.13;;;;;;;22.05;80.79;100454.22;5002899;28;20756;-75
2021/09/10 08:36:12;;;;;;;7.73;7.23;;;;;;;22.05;81.20;100448.91;5003275;28;20203;-75
2021/09/10 08:38:38;;;;;;;7.60;7.10;;;;;;;22.04;81.76;100429.44;5002944;28;20288;-77
2021/09/10 08:41:05;;;;;;;8.73;8.03;;;;;;;22.09;82.01;100414.00;5003624;28;20291;-77
2021/09/10 08:43:32;;;;;;;7.00;6.60;;;;;;;22.25;81.49;100424.50;5002681;28;20693;-76
2021/09/10 08:45:59;;;;;;;8.13;7.53;;;;;;;22.34;81.58;100428.34;5003049;28;20209;-77
2021/09/10 08:48:28;;;;;;;8.17;7.57;;;;;;;22.49;81.08;100440.56;5002900;28;20676;-76
2021/09/10 08:50:56;;;;;;;8.90;8.20;;;;;;;22.37;79.26;100502.59;5003445;28;20231;-77
2021/09/10 08:53:23;;;;;;;8.37;7.77;;;;;;;22.53;80.18;100483.78;5003628;28;20211;-74
2021/09/10 08:55:49;;;;;;;7.87;7.17;;;;;;;22.56;80.44;100470.28;5003352;28;20286;-78
2021/09/10 08:58:15;;;;;;;10.60;9.00;;;;;;;22.36;79.18;100511.56;5003075;28;20236;-77
2021/09/10 09:00:42;;;;;;;9.80;9.00;;;;;;;22.47;80.60;100478.88;5002168;28;20656;-75
2021/09/10 09:03:10;;;;;;;9.00;8.33;;;;;;;22.57;80.61;100467.50;5002934;28;20210;-76
2021/09/10 09:05:37;;;;;;;9.80;9.13;;;;;;;22.50;80.15;100484.00;5003715;28;20207;-79
2021/09/10 09:08:10;;;;;;;10.73;9.93;;;;;;;22.50;80.53;100460.91;5002994;28;20214;-78
2021/09/10 09:10:50;;;;;;;10.37;9.53;;;;;;;22.58;79.78;100497.63;5002718;28;20698;-77
2021/09/10 09:13:18;;;;;;;11.17;10.47;;;;;;;22.44;79.44;100527.84;5002484;28;20212;-77
2021/09/10 09:15:45;;;;;;;11.67;10.87;;;;;;;22.39;79.79;100506.84;5003121;28;20447;-77
2021/09/10 09:18:11;;;;;;;9.60;8.70;;;;;;;22.30;80.47;100474.69;5003553;28;20257;-77
2021/09/10 09:20:38;;;;;;;10.37;9.57;;;;;;;22.38;81.09;100459.09;5002688;28;20670;-77
2021/09/10 09:23:08;;;;;;;10.30;9.50;;;;;;;22.36;80.35;100485.78;5003138;28;20207;-78
2021/09/10 09:25:39;;;;;;;9.87;9.17;;;;;;;22.33;79.99;100498.44;5003267;28;20210;-77
2021/09/10 09:28:21;;;;;;;9.70;9.00;;;;;;;22.41;79.65;100520.06;5003171;28;20211;-76
2021/09/10 09:30:49;;;;;;;10.33;9.63;;;;;;;22.39;79.51;100511.31;5002875;28;20207;-77
2021/09/10 09:33:18;;;;;;;11.83;10.87;;;;;;;22.49;78.51;100551.47;5002773;28;20214;-76
2021/09/10 09:35:44;;;;;;;14.00;13.00;;;;;;;22.36;78.37;100549.63;5002460;28;20217;-75
2021/09/10 09:38:27;;;;;;;13.33;12.33;;;;;;;22.34;79.05;100534.75;5001073;28;20217;-77
2021/09/10 09:40:56;;;;;;;11.90;11.07;;;;;;;22.31;78.51;100549.06;5001803;28;20230;-76
2021/09/10 09:43:25;;;;;;;12.20;11.20;;;;;;;22.38;79.49;100514.97;5002004;28;20264;-75
2021/09/10 09:45:52;;;;;;;11.20;10.43;;;;;;;22.29;78.91;100512.91;4999722;28;20633;-76
2021/09/10 09:48:21;;;;;;;12.33;11.20;;;;;;;22.40;79.53;100502.41;5002137;28;20203;-75
2021/09/10 09:50:49;;;;;;;11.80;10.90;;;;;;;22.39;79.81;100493.56;5003127;28;20211;-77
2021/09/10 09:53:17;;;;;;;12.27;11.27;;;;;;;22.32;79.48;100496.72;5005952;28;20576;-76
2021/09/10 09:55:45;;;;;;;11.67;10.70;;;;;;;22.37;80.26;100474.19;5005263;28;20205;-77
2021/09/10 09:58:13;;;;;;;12.23;11.27;;;;;;;22.36;79.92;100477.81;5005386;28;20207;-76
2021/09/10 10:00:41;;;;;;;12.23;10.77;;;;;;;22.42;80.78;100457.94;5006364;28;20241;-76
2021/09/10 10:03:08;;;;;;;12.97;11.97;;;;;;;22.51;80.22;100462.59;5005170;28;21129;-77
2021/09/10 10:05:45;;;;;;;12.10;11.13;;;;;;;22.60;80.19;100461.97;5006124;28;20252;-78
2021/09/10 10:08:17;;;;;;;12.57;11.50;;;;;;;22.77;78.21;100529.16;5005063;28;20794;-77
2021/09/10 10:10:48;;;;;;;13.43;12.53;;;;;;;22.70;77.68;100562.47;5005053;28;20213;-77
2021/09/10 10:13:21;;;;;;;13.70;12.50;;;;;;;22.68;78.90;100508.50;5005446;28;20757;-77
2021/09/10 10:15:49;;;;;;;12.50;11.60;;;;;;;22.43;78.06;100542.09;5004631;28;20685;-75
2021/09/10 10:18:35;;;;;;;12.77;11.87;;;;;;;22.38;79.36;100488.34;5005655;28;20207;-76
2021/09/10 10:21:02;;;;;;;12.53;11.57;;;;;;;22.45;79.02;100496.75;5004687;28;20791;-78
2021/09/10 10:23:58;;;;;;;12.60;11.60;;;;;;;22.30;80.88;100438.34;5005334;28;20259;-78
2021/09/10 10:26:43;;;;;;;13.10;12.10;;;;;;;22.25;79.24;100476.84;5005556;28;20214;-75
2021/09/10 10:29:16;;;;;;;12.57;11.67;;;;;;;22.28;80.37;100442.91;5006219;28;20210;-75
2021/09/10 10:32:12;;;;;;;12.90;11.87;;;;;;;22.25;80.89;100429.81;5004828;28;20237;-77
2021/09/10 10:35:14;;;;;;;12.13;11.33;;;;;;;22.25;81.15;100418.34;4924643;29;20214;-74
2021/09/10 10:37:43;;;;;;;11.60;10.70;;;;;;;22.33;83.44;100347.69;5005520;28;20213;-77
2021/09/10 10:40:37;;;;;;;10.70;9.90;;;;;;;22.41;83.45;100347.16;5005832;28;20237;-78
2021/09/10 10:43:06;;;;;;;9.87;9.17;;;;;;;22.49;83.56;100343.97;5004471;28;20600;-76
2021/09/10 10:45:58;;;;;;;10.07;9.37;;;;;;;22.39;84.53;100311.84;5005321;28;20369;-77
2021/09/10 10:48:47;;;;;;;12.27;11.37;;;;;;;22.21;84.46;100324.59;5004914;28;20829;-76
2021/09/10 10:51:40;;;;;;;15.60;12.03;;;;;;;22.10;84.72;100292.56;5004155;28;20226;-78
2021/09/10 10:54:17;;;;;;;17.60;12.80;;;;;;;21.93;83.65;100338.94;5005115;28;20229;-77
2021/09/10 10:56:48;;;;;;;14.57;13.47;;;;;;;21.89;83.22;100350.72;5005644;28;20211;-79
2021/09/10 10:59:36;;;;;;;14.03;12.77;;;;;;;21.98;83.33;100355.41;5005343;28;20218;-78
2021/09/10 11:02:35;;;;;;;11.90;10.93;;;;;;;22.11;84.73;100319.06;5005286;28;20230;-78
2021/09/10 11:05:17;;;;;;;10.30;9.50;;;;;;;22.24;86.73;100259.69;5004510;28;20214;-77
2021/09/10 11:07:44;;;;;;;12.73;11.80;;;;;;;22.20;87.16;100241.31;5005333;28;20654;-79
2021/09/10 11:10:13;;;;;;;15.33;13.97;;;;;;;22.07;85.03;100304.28;5005828;28;20209;-77
2021/09/10 11:12:41;;;;;;;15.50;14.30;;;;;;;22.17;84.73;100315.13;5005881;28;20236;-77
2021/09/10 11:15:20;;;;;;;17.87;15.23;;;;;;;22.24;84.32;100329.75;5006221;28;20759;-78
2021/09/10 11:17:55;;;;;;;16.10;14.83;;;;;;;22.35;83.93;100339.63;5008022;28;20259;-78
2021/09/10 11:20:26;;;;;;;15.00;13.40;;;;;;;22.43;84.23;100325.78;5005657;28;20230;-79
2021/09/10 11:22:53;;;;;;;14.57;13.27;;;;;;;22.50;83.33;100343.88;5006362;28;20228;-78
2021/09/10 11:25:19;;;;;;;13.77;12.60;;;;;;;22.42;83.39;100343.56;5008547;28;20359;-77
2021/09/10 11:27:46;;;;;;;13.80;12.53;;;;;;;22.51;84.95;100287.03;5009302;28;20265;-79
2021/09/10 11:30:14;;;;;;;13.43;12.47;;;;;;;22.54;83.46;100328.53;5009711;28;20207;-80